Time;durP1;ratioP1;P1;durP2;ratioP2;P2;SDS_P1;SDS_P2;PMS_P1;PMS_P2;Temp;Humidity;BMP_temperature;BMP_pressure;BME280_temperature;BME280_humidity;BME280_pressure;Samples;Min_cycle;Max_cycle;Signal;HPM_P1;HPM_P2
2024/03/19 00:00:21;;;;;;;0.80;0.37;;;12.70;73.80;;;;;;2313938;54;20949;-67
2024/03/19 00:02:47;;;;;;;1.12;0.55;;;12.70;73.70;;;;;;2313731;55;21736;-66
2024/03/19 00:05:14;;;;;;;2.08;0.40;;;12.70;73.70;;;;;;2313499;55;21016;-66
2024/03/19 00:07:41;;;;;;;1.60;0.50;;;12.70;73.60;;;;;;2313224;53;20938;-66
2024/03/19 00:10:08;;;;;;;2.20;0.37;;;12.60;73.50;;;;;;2313951;55;20973;-66
2024/03/19 00:12:35;;;;;;;1.62;0.50;;;12.60;73.40;;;;;;2313404;53;21016;-66
2024/03/19 00:15:02;;;;;;;0.95;0.40;;;12.60;73.30;;;;;;2313529;54;20977;-67
2024/03/19 00:17:29;;;;;;;1.08;0.47;;;12.60;73.50;;;;;;2291561;54;21004;-66
2024/03/19 00:19:55;;;;;;;1.92;0.60;;;12.60;73.60;;;;;;2312461;53;20971;-67
2024/03/19 00:22:22;;;;;;;2.05;0.60;;;12.50;73.70;;;;;;2314440;55;20960;-67
2024/03/19 00:24:49;;;;;;;2.42;0.80;;;12.50;74.70;;;;;;2314689;55;20973;-67
2024/03/19 00:27:15;;;;;;;2.92;0.88;;;12.50;74.80;;;;;;2294424;55;21062;-67
2024/03/19 00:29:41;;;;;;;1.58;0.60;;;12.50;74.30;;;;;;2311412;53;21675;-66
2024/03/19 00:32:08;;;;;;;1.30;0.57;;;12.50;74.40;;;;;;2316471;55;21278;-66
2024/03/19 00:34:35;;;;;;;1.73;0.70;;;12.50;74.60;;;;;;2308992;53;21774;-67
2024/03/19 00:37:03;;;;;;;2.17;0.80;;;12.50;74.80;;;;;;2313740;53;21024;-66
2024/03/19 00:39:32;;;;;;;1.35;0.57;;;12.60;75.00;;;;;;2314329;55;21830;-66
2024/03/19 00:41:58;;;;;;;1.42;0.60;;;12.60;75.80;;;;;;2313559;55;21798;-66
2024/03/19 00:44:24;;;;;;;1.00;0.40;;;12.60;75.20;;;;;;2314096;53;20985;-66
2024/03/19 00:46:50;;;;;;;1.23;0.40;;;12.60;75.30;;;;;;2313802;53;20961;-67
2024/03/19 00:49:17;;;;;;;0.93;0.50;;;12.60;75.40;;;;;;2312845;54;21197;-66
2024/03/19 00:51:43;;;;;;;1.15;0.50;;;12.70;75.60;;;;;;2313658;55;21205;-66
2024/03/19 00:54:09;;;;;;;1.33;0.60;;;12.70;75.60;;;;;;2315179;55;21388;-67
2024/03/19 00:56:36;;;;;;;1.42;0.50;;;12.70;75.70;;;;;;2310717;55;20932;-66
2024/03/19 00:59:02;;;;;;;0.95;0.50;;;12.80;75.80;;;;;;2313688;53;21156;-66
2024/03/19 01:01:31;;;;;;;2.37;0.60;;;12.80;75.90;;;;;;2313949;53;21033;-67
2024/03/19 01:04:00;;;;;;;0.98;0.40;;;12.80;75.80;;;;;;2313422;55;20945;-66
2024/03/19 01:06:27;;;;;;;1.40;0.50;;;12.90;75.90;;;;;;2313695;55;20945;-66
2024/03/19 01:08:53;;;;;;;1.67;0.60;;;13.00;76.00;;;;;;2313522;53;20965;-66
2024/03/19 01:11:19;;;;;;;1.48;0.62;;;12.90;75.80;;;;;;2314769;55;20972;-66
2024/03/19 01:13:45;;;;;;;1.35;0.70;;;13.00;75.90;;;;;;2309918;55;21185;-66
2024/03/19 01:16:12;;;;;;;1.23;0.50;;;13.00;75.70;;;;;;2313244;53;21060;-67
2024/03/19 01:18:40;;;;;;;1.75;0.50;;;13.00;75.70;;;;;;2313346;55;20925;-66
2024/03/19 01:21:07;;;;;;;1.42;0.40;;;13.00;75.70;;;;;;2310615;53;21482;-66
2024/03/19 01:23:34;;;;;;;1.12;0.50;;;13.10;75.80;;;;;;2312421;55;21001;-67
2024/03/19 01:26:02;;;;;;;0.90;0.40;;;13.10;75.90;;;;;;2312176;53;21080;-66
2024/03/19 01:28:33;;;;;;;0.82;0.40;;;13.10;75.90;;;;;;2313552;53;20925;-66
2024/03/19 01:31:01;;;;;;;1.27;0.60;;;13.10;75.90;;;;;;2313252;53;22059;-67
2024/03/19 01:33:27;;;;;;;1.05;0.57;;;13.20;76.10;;;;;;2313999;53;20985;-67
2024/03/19 01:35:54;;;;;;;1.40;0.47;;;13.20;76.10;;;;;;2312536;55;21022;-66
2024/03/19 01:38:24;;;;;;;1.55;0.57;;;13.20;76.20;;;;;;2313389;53;21261;-66
2024/03/19 01:40:53;;;;;;;1.42;0.60;;;13.30;76.30;;;;;;2313303;53;20961;-67
2024/03/19 01:43:19;;;;;;;1.48;0.50;;;13.30;76.30;;;;;;2314392;55;20997;-67
2024/03/19 01:47:08;;;;;;;1.85;0.70;;;13.40;76.30;;;;;;2312780;55;21865;-67
2024/03/19 01:49:36;;;;;;;1.50;0.50;;;13.40;75.20;;;;;;2314170;55;20976;-66
2024/03/19 01:52:02;;;;;;;1.50;0.50;;;13.40;75.90;;;;;;2314414;54;21041;-67
2024/03/19 01:54:30;;;;;;;2.28;0.60;;;13.50;76.00;;;;;;2310813;55;22324;-66
2024/03/19 01:56:56;;;;;;;1.62;0.60;;;13.50;75.80;;;;;;2313016;53;21574;-67
2024/03/19 01:59:23;;;;;;;1.20;0.50;;;13.50;75.70;;;;;;2313737;55;21231;-66
2024/03/19 02:01:49;;;;;;;0.50;0.30;;;13.50;75.60;;;;;;2312080;53;21517;-66
2024/03/19 02:04:15;;;;;;;1.45;0.60;;;13.50;75.40;;;;;;2313661;55;21056;-65
2024/03/19 02:06:41;;;;;;;10.77;0.90;;;13.50;75.30;;;;;;2312805;53;21446;-66
2024/03/19 02:09:08;;;;;;;2.30;0.70;;;13.50;75.10;;;;;;2313182;55;21029;-66
2024/03/19 02:11:35;;;;;;;1.85;0.55;;;13.50;74.90;;;;;;2291119;55;21517;-66
2024/03/19 02:14:04;;;;;;;0.75;0.45;;;13.50;74.80;;;;;;2313564;54;20933;-67
2024/03/19 02:16:33;;;;;;;1.42;0.60;;;13.50;74.70;;;;;;2313907;55;20937;-67
2024/03/19 02:19:01;;;;;;;1.17;0.50;;;13.50;74.50;;;;;;2313257;55;21131;-67
2024/03/19 02:21:29;;;;;;;1.17;0.50;;;13.50;74.40;;;;;;2313731;55;20949;-66
2024/03/19 02:24:01;;;;;;;1.15;0.57;;;13.40;74.10;;;;;;2313652;55;20981;-67
2024/03/19 02:26:30;;;;;;;1.23;0.45;;;13.40;73.90;;;;;;2312735;54;20965;-67
2024/03/19 02:28:57;;;;;;;1.40;0.60;;;13.40;73.90;;;;;;2313226;55;20965;-66
2024/03/19 02:31:27;;;;;;;1.05;0.50;;;13.40;73.80;;;;;;2313429;53;20981;-66
2024/03/19 02:33:56;;;;;;;2.40;0.65;;;13.30;73.60;;;;;;2313160;53;20965;-66
2024/03/19 02:36:25;;;;;;;1.30;0.50;;;13.30;73.50;;;;;;2314038;55;20933;-65
2024/03/19 02:38:52;;;;;;;1.70;0.60;;;13.30;73.30;;;;;;2312703;53;20964;-66
2024/03/19 02:41:18;;;;;;;1.75;0.50;;;13.20;73.20;;;;;;2314296;53;20997;-67
2024/03/19 02:43:45;;;;;;;1.25;0.57;;;13.20;73.10;;;;;;2313667;53;20932;-67
2024/03/19 02:46:11;;;;;;;3.30;0.80;;;13.10;72.90;;;;;;2314103;53;21254;-65
2024/03/19 02:48:37;;;;;;;1.77;0.60;;;13.20;73.10;;;;;;2314032;53;21533;-66
2024/03/19 02:51:04;;;;;;;1.23;0.52;;;13.00;72.80;;;;;;2313124;55;21253;-65
2024/03/19 02:53:30;;;;;;;1.35;0.50;;;13.00;72.80;;;;;;2314103;54;20977;-66
2024/03/19 02:55:56;;;;;;;1.60;0.50;;;12.90;72.60;;;;;;2311132;55;20961;-65
2024/03/19 02:58:23;;;;;;;1.90;0.60;;;12.90;72.60;;;;;;2314327;53;20949;-66
2024/03/19 03:00:51;;;;;;;1.60;0.77;;;12.80;72.50;;;;;;2314794;55;21326;-66
2024/03/19 03:03:17;;;;;;;1.30;0.52;;;12.80;72.60;;;;;;2311147;55;21041;-66
2024/03/19 03:05:45;;;;;;;0.93;0.50;;;12.70;72.40;;;;;;2313464;55;21103;-67
2024/03/19 03:08:11;;;;;;;1.98;0.60;;;12.70;72.30;;;;;;2316839;55;21097;-66
2024/03/19 03:10:38;;;;;;;1.73;0.52;;;12.60;72.30;;;;;;2309883;53;20992;-66
2024/03/19 03:13:04;;;;;;;1.75;0.55;;;12.60;72.30;;;;;;2313072;53;21753;-66
2024/03/19 03:15:31;;;;;;;1.58;0.70;;;12.50;72.20;;;;;;2313597;53;21036;-66
2024/03/19 03:17:57;;;;;;;2.05;0.90;;;12.40;72.10;;;;;;2313248;54;20958;-67
2024/03/19 03:20:24;;;;;;;1.52;0.73;;;12.40;72.10;;;;;;2315366;53;21001;-67
2024/03/19 03:22:50;;;;;;;1.45;0.62;;;12.30;72.00;;;;;;2309563;55;21770;-66
2024/03/19 03:25:16;;;;;;;1.08;0.50;;;12.30;72.00;;;;;;2314367;53;21017;-66
2024/03/19 03:27:43;;;;;;;2.87;0.80;;;12.20;71.90;;;;;;2313745;55;20968;-65
2024/03/19 03:30:13;;;;;;;2.17;1.00;;;12.10;72.00;;;;;;2313845;55;21407;-66
2024/03/19 03:32:40;;;;;;;1.90;0.60;;;12.10;72.10;;;;;;2313725;53;20949;-65
2024/03/19 03:35:07;;;;;;;1.80;0.80;;;12.10;72.10;;;;;;2313333;53;21348;-66
2024/03/19 03:37:34;;;;;;;2.65;0.75;;;12.00;72.10;;;;;;2313981;55;20970;-67
2024/03/19 03:40:01;;;;;;;1.75;0.75;;;12.00;72.20;;;;;;2313578;55;21280;-67
2024/03/19 03:42:27;;;;;;;1.62;0.70;;;11.90;72.10;;;;;;2314523;53;21016;-65
2024/03/19 03:44:58;;;;;;;1.52;0.70;;;11.90;72.10;;;;;;2310233;55;20937;-66
2024/03/19 03:47:24;;;;;;;1.10;0.60;;;11.80;72.10;;;;;;2313939;53;21025;-65
2024/03/19 03:49:51;;;;;;;1.87;0.62;;;11.80;72.10;;;;;;2313175;53;20993;-65
2024/03/19 03:52:17;;;;;;;2.40;0.90;;;11.70;72.00;;;;;;2313859;53;20945;-67
2024/03/19 03:54:45;;;;;;;3.53;0.68;;;11.70;72.00;;;;;;2314039;53;20917;-66
2024/03/19 03:57:12;;;;;;;1.85;0.70;;;11.70;72.00;;;;;;2313485;53;21526;-66
2024/03/19 03:59:41;;;;;;;2.28;0.62;;;11.60;71.90;;;;;;2313009;55;20976;-66
2024/03/19 04:02:08;;;;;;;1.42;0.70;;;11.60;71.80;;;;;;2313805;53;20969;-66
2024/03/19 04:04:34;;;;;;;1.62;0.70;;;11.50;71.90;;;;;;2314501;53;21734;-66
2024/03/19 04:07:00;;;;;;;1.90;0.80;;;11.50;71.90;;;;;;2311712;53;20953;-65
2024/03/19 04:09:26;;;;;;;1.65;0.60;;;11.50;72.00;;;;;;2314017;55;21060;-66
2024/03/19 04:11:53;;;;;;;1.58;0.65;;;11.40;72.00;;;;;;2312886;53;21764;-66
2024/03/19 04:14:20;;;;;;;1.52;0.70;;;11.40;72.00;;;;;;2315499;53;21749;-66
2024/03/19 04:16:46;;;;;;;1.75;0.65;;;11.30;72.10;;;;;;2311244;53;21533;-67
2024/03/19 04:19:13;;;;;;;2.42;0.70;;;11.30;72.10;;;;;;2313489;53;20996;-65
2024/03/19 04:21:39;;;;;;;1.65;0.80;;;11.20;71.90;;;;;;2313710;53;21033;-66
2024/03/19 04:24:06;;;;;;;3.00;0.90;;;11.20;72.00;;;;;;2313731;55;20928;-66
2024/03/19 04:26:34;;;;;;;1.60;0.68;;;11.20;72.10;;;;;;2313885;55;20969;-66
2024/03/19 04:29:04;;;;;;;1.23;0.62;;;11.20;72.10;;;;;;2314337;53;21410;-66
2024/03/19 04:31:33;;;;;;;1.90;0.77;;;11.10;72.10;;;;;;2314023;55;20976;-67
2024/03/19 04:33:59;;;;;;;1.80;0.68;;;11.10;72.20;;;;;;2312411;53;21008;-66
2024/03/19 04:36:28;;;;;;;1.67;0.70;;;11.10;72.20;;;;;;2313776;53;21024;-66
2024/03/19 04:38:54;;;;;;;1.73;0.70;;;11.10;72.20;;;;;;2314130;55;21020;-65
2024/03/19 04:41:22;;;;;;;3.83;0.73;;;11.00;72.10;;;;;;2316822;55;20961;-65
2024/03/19 04:43:49;;;;;;;1.85;0.70;;;11.00;72.10;;;;;;2310259;55;20989;-66
2024/03/19 04:46:17;;;;;;;2.30;0.80;;;10.90;72.00;;;;;;2311986;55;20981;-66
2024/03/19 04:48:43;;;;;;;1.25;0.50;;;10.90;72.00;;;;;;2312919;55;21665;-66
2024/03/19 04:51:13;;;;;;;2.22;0.98;;;10.90;72.70;;;;;;2312765;53;20994;-66
2024/03/19 04:53:49;;;;;;;2.65;0.70;;;10.90;72.00;;;;;;2310903;55;20978;-66
2024/03/19 04:56:15;;;;;;;1.98;0.90;;;10.80;71.70;;;;;;2313388;55;21482;-66
2024/03/19 04:58:42;;;;;;;1.95;0.80;;;10.80;71.90;;;;;;2313611;55;21013;-66
2024/03/19 05:01:12;;;;;;;1.77;0.70;;;10.80;72.00;;;;;;2313338;53;20960;-65
2024/03/19 05:03:38;;;;;;;2.20;0.90;;;10.70;71.90;;;;;;2315528;54;21028;-65
2024/03/19 05:06:05;;;;;;;1.87;0.80;;;10.70;72.00;;;;;;2309668;55;21269;-66
2024/03/19 05:08:33;;;;;;;2.67;0.70;;;10.70;71.90;;;;;;2312745;53;21048;-66
2024/03/19 05:11:00;;;;;;;2.03;0.80;;;10.60;71.80;;;;;;2313176;55;21000;-66
2024/03/19 05:13:26;;;;;;;2.47;1.10;;;10.60;71.90;;;;;;2312002;55;21834;-66
2024/03/19 05:16:02;;;;;;;1.95;0.90;;;10.60;71.90;;;;;;2312649;54;21314;-66
2024/03/19 05:18:28;;;;;;;1.77;0.80;;;10.60;71.60;;;;;;2313750;55;20985;-66
2024/03/19 05:20:54;;;;;;;2.12;1.00;;;10.50;71.70;;;;;;2313712;55;20965;-65
2024/03/19 05:23:21;;;;;;;2.30;0.95;;;10.50;71.80;;;;;;2313274;54;21112;-67
2024/03/19 05:25:47;;;;;;;2.78;1.00;;;10.50;71.90;;;;;;2313773;54;21385;-66
2024/03/19 05:28:14;;;;;;;1.85;0.90;;;10.40;71.80;;;;;;2313415;55;21020;-66
2024/03/19 05:30:41;;;;;;;2.00;0.88;;;10.40;71.90;;;;;;2313374;54;20961;-65
2024/03/19 05:33:07;;;;;;;1.80;0.75;;;10.40;72.60;;;;;;2313517;53;20961;-66
2024/03/19 05:35:34;;;;;;;1.77;0.90;;;10.30;71.80;;;;;;2313694;55;21703;-65
2024/03/19 05:38:00;;;;;;;2.12;0.93;;;10.30;71.90;;;;;;2313586;53;21024;-65
2024/03/19 05:40:26;;;;;;;1.75;0.90;;;10.30;71.90;;;;;;2313467;53;21474;-65
2024/03/19 05:42:53;;;;;;;1.73;0.82;;;10.30;72.00;;;;;;2313687;53;20972;-66
2024/03/19 05:45:19;;;;;;;2.00;0.80;;;10.20;71.90;;;;;;2313673;54;21439;-67
2024/03/19 05:47:47;;;;;;;1.52;0.73;;;10.20;71.90;;;;;;2313555;53;21732;-66
2024/03/19 05:50:14;;;;;;;1.90;0.70;;;10.20;72.00;;;;;;2312850;53;21039;-65
2024/03/19 05:52:44;;;;;;;2.45;0.80;;;10.20;72.00;;;;;;2313632;55;20956;-66
2024/03/19 05:55:10;;;;;;;1.90;0.82;;;10.20;72.10;;;;;;2313384;55;21384;-66
2024/03/19 05:57:37;;;;;;;2.40;1.10;;;10.10;71.90;;;;;;2313365;53;21044;-64
2024/03/19 06:00:06;;;;;;;2.70;1.25;;;10.10;72.00;;;;;;2313494;53;21041;-65
2024/03/19 06:02:33;;;;;;;2.60;1.08;;;10.10;72.10;;;;;;2313695;53;21362;-66
2024/03/19 06:04:59;;;;;;;3.50;1.30;;;10.10;72.20;;;;;;2313674;55;20957;-64
2024/03/19 06:07:26;;;;;;;2.47;1.10;;;10.00;72.20;;;;;;2313740;55;20941;-66
2024/03/19 06:09:52;;;;;;;3.47;1.58;;;10.00;72.30;;;;;;2314331;53;21517;-65
2024/03/19 06:12:18;;;;;;;2.22;1.00;;;10.00;72.40;;;;;;2313637;54;20976;-66
2024/03/19 06:14:44;;;;;;;2.67;1.15;;;10.00;72.50;;;;;;2314095;55;21039;-66
2024/03/19 06:17:11;;;;;;;2.50;1.00;;;10.00;72.50;;;;;;2313697;55;21033;-66
2024/03/19 06:19:37;;;;;;;2.45;1.00;;;10.00;72.60;;;;;;2313760;53;20953;-66
2024/03/19 06:22:04;;;;;;;2.75;1.23;;;10.00;72.70;;;;;;2313303;53;21697;-66
2024/03/19 06:24:30;;;;;;;2.40;1.27;;;10.00;72.80;;;;;;2314220;55;20957;-66
2024/03/19 06:26:57;;;;;;;2.28;1.10;;;10.00;72.90;;;;;;2313768;55;22064;-66
2024/03/19 06:29:23;;;;;;;4.97;1.20;;;10.00;72.90;;;;;;2313169;55;21020;-66
2024/03/19 06:31:49;;;;;;;2.70;1.10;;;10.00;73.00;;;;;;2314605;53;21017;-66
2024/03/19 06:34:15;;;;;;;2.50;1.27;;;10.00;73.20;;;;;;2313031;54;21065;-67
2024/03/19 06:36:43;;;;;;;3.30;1.37;;;10.00;73.30;;;;;;2311050;55;20957;-66
2024/03/19 06:39:09;;;;;;;3.58;1.40;;;10.10;73.50;;;;;;2313868;53;21293;-66
2024/03/19 06:41:35;;;;;;;2.97;1.33;;;10.10;73.60;;;;;;2314040;53;21024;-66
2024/03/19 06:44:02;;;;;;;3.08;1.40;;;10.10;73.80;;;;;;2313238;53;20959;-66
2024/03/19 06:46:28;;;;;;;4.40;1.62;;;10.10;74.00;;;;;;2311631;55;21850;-66
2024/03/19 06:48:55;;;;;;;2.90;1.27;;;10.20;74.30;;;;;;2313294;53;21041;-67
2024/03/19 06:51:21;;;;;;;4.25;1.60;;;10.20;74.50;;;;;;2313363;55;21029;-66
2024/03/19 06:53:48;;;;;;;3.72;1.73;;;10.00;74.50;;;;;;2312048;55;20958;-66
2024/03/19 06:56:15;;;;;;;3.17;1.42;;;10.30;75.00;;;;;;2313060;55;21005;-66
2024/03/19 06:58:44;;;;;;;3.60;1.62;;;10.30;75.30;;;;;;2316275;55;21377;-66
2024/03/19 07:01:10;;;;;;;2.42;1.20;;;10.40;75.70;;;;;;2309268;54;21465;-66
2024/03/19 07:03:37;;;;;;;2.92;1.30;;;10.50;76.00;;;;;;2313600;55;20957;-66
2024/03/19 07:06:04;;;;;;;3.00;1.50;;;10.50;76.30;;;;;;2314304;53;20960;-65
2024/03/19 07:08:31;;;;;;;3.58;1.25;;;10.60;76.50;;;;;;2314159;53;21270;-67
2024/03/19 07:10:57;;;;;;;3.17;1.45;;;10.70;76.80;;;;;;2312010;55;21040;-67
2024/03/19 07:13:25;;;;;;;5.93;1.45;;;10.80;77.00;;;;;;2312515;55;21000;-66
2024/03/19 07:15:51;;;;;;;2.53;1.23;;;10.80;77.00;;;;;;2313155;53;21269;-67
2024/03/19 07:18:20;;;;;;;2.78;1.30;;;10.90;77.10;;;;;;2313834;55;21517;-66
2024/03/19 07:20:46;;;;;;;2.80;1.45;;;11.00;77.20;;;;;;2313629;55;21289;-66
2024/03/19 07:23:12;;;;;;;4.93;2.00;;;11.10;77.30;;;;;;2313311;53;21072;-67
2024/03/19 07:25:39;;;;;;;3.15;1.50;;;11.20;77.40;;;;;;2313558;53;21459;-67
2024/03/19 07:28:05;;;;;;;4.22;2.00;;;11.30;77.50;;;;;;2314192;55;21016;-67
2024/03/19 07:30:34;;;;;;;5.35;2.37;;;11.40;77.70;;;;;;2313650;53;20914;-65
2024/03/19 07:33:01;;;;;;;6.00;2.28;;;11.50;77.80;;;;;;2313667;55;21092;-67
2024/03/19 07:35:28;;;;;;;4.55;2.70;;;11.50;77.80;;;;;;2313525;53;20989;-67
2024/03/19 07:37:54;;;;;;;4.15;2.22;;;11.60;77.90;;;;;;2313800;53;21076;-66
2024/03/19 07:40:21;;;;;;;4.90;2.62;;;11.70;78.10;;;;;;2314034;55;21016;-67
2024/03/19 07:42:50;;;;;;;4.07;2.30;;;11.80;78.20;;;;;;2313419;55;20981;-66
2024/03/19 07:45:17;;;;;;;4.37;2.20;;;11.90;78.20;;;;;;2313652;53;21000;-66
2024/03/19 07:47:43;;;;;;;5.82;2.45;;;12.00;78.30;;;;;;2313517;53;21001;-67
2024/03/19 07:50:10;;;;;;;4.50;2.35;;;12.10;78.40;;;;;;2314362;55;21384;-67
2024/03/19 07:52:39;;;;;;;3.08;1.92;;;12.20;78.50;;;;;;2313646;55;22097;-67
2024/03/19 07:55:06;;;;;;;3.62;1.90;;;12.40;78.70;;;;;;2313288;54;21859;-66
2024/03/19 07:57:33;;;;;;;3.03;1.62;;;12.40;78.70;;;;;;2312733;53;21079;-67
2024/03/19 08:00:09;;;;;;;3.70;1.90;;;12.50;78.80;;;;;;2313447;55;21313;-66
2024/03/19 08:02:38;;;;;;;4.43;1.80;;;12.60;78.90;;;;;;2312163;53;20970;-66
2024/03/19 08:05:08;;;;;;;3.78;1.98;;;12.70;79.00;;;;;;2313737;55;20997;-67
2024/03/19 08:07:37;;;;;;;4.05;1.98;;;12.80;79.10;;;;;;2312736;53;20952;-67
2024/03/19 08:10:07;;;;;;;4.62;2.08;;;12.90;79.30;;;;;;2314991;55;21369;-67
2024/03/19 08:12:34;;;;;;;4.60;2.25;;;13.00;79.40;;;;;;2313097;55;20985;-67
2024/03/19 08:15:02;;;;;;;3.15;1.65;;;13.10;79.60;;;;;;2313259;55;21491;-66
2024/03/19 08:17:29;;;;;;;3.00;1.62;;;13.20;79.90;;;;;;2293026;53;21135;-66
2024/03/19 08:19:56;;;;;;;2.40;1.30;;;13.30;80.00;;;;;;2313442;55;21112;-67
2024/03/19 08:22:23;;;;;;;2.87;1.30;;;13.40;80.00;;;;;;2313133;53;21664;-67
2024/03/19 08:24:53;;;;;;;2.40;1.10;;;13.50;80.00;;;;;;2313957;55;20953;-67
2024/03/19 08:27:19;;;;;;;2.00;0.90;;;13.70;80.20;;;;;;2313684;53;20952;-67
2024/03/19 08:29:46;;;;;;;2.15;0.90;;;13.80;80.20;;;;;;2314027;53;21391;-67
2024/03/19 08:32:17;;;;;;;2.17;1.00;;;13.90;80.20;;;;;;2308825;53;20957;-67
2024/03/19 08:34:43;;;;;;;1.73;0.90;;;14.00;80.20;;;;;;2316304;55;21009;-67
2024/03/19 08:37:10;;;;;;;2.37;0.98;;;14.10;80.10;;;;;;2310187;53;21257;-67
2024/03/19 08:39:37;;;;;;;2.00;0.85;;;14.20;80.10;;;;;;2313130;55;21005;-67
2024/03/19 08:42:05;;;;;;;2.70;1.23;;;14.30;80.20;;;;;;2313186;55;20968;-67
2024/03/19 08:44:31;;;;;;;2.60;1.10;;;14.40;80.30;;;;;;2314534;53;21491;-69
2024/03/19 08:47:01;;;;;;;2.33;1.10;;;14.50;80.40;;;;;;2313564;55;21056;-67
2024/03/19 08:49:30;;;;;;;2.92;1.02;;;14.60;80.50;;;;;;2313359;53;21810;-66
2024/03/19 08:51:58;;;;;;;2.45;1.27;;;14.80;80.30;;;;;;2313882;55;21101;-67
2024/03/19 08:54:25;;;;;;;3.05;1.25;;;14.80;80.20;;;;;;2466662;54;2644489;-67
2024/03/19 08:56:52;;;;;;;3.10;1.27;;;14.90;80.40;;;;;;2312850;53;20966;-67
2024/03/19 08:59:19;;;;;;;2.72;1.20;;;15.10;80.60;;;;;;2313832;55;21016;-68
2024/03/19 09:01:46;;;;;;;2.95;1.30;;;15.20;80.70;;;;;;2314019;53;20965;-67
2024/03/19 09:04:12;;;;;;;3.50;1.40;;;15.30;80.70;;;;;;2312132;53;20949;-67
2024/03/19 09:06:39;;;;;;;3.20;1.20;;;15.40;80.60;;;;;;2292041;55;20968;-67
2024/03/19 09:09:06;;;;;;;3.65;1.45;;;15.50;80.60;;;;;;2311996;55;21324;-69
2024/03/19 09:11:33;;;;;;;2.58;1.40;;;15.60;80.60;;;;;;2312661;54;20969;-68
2024/03/19 09:14:00;;;;;;;2.42;1.23;;;15.70;80.50;;;;;;2313678;53;20997;-68
2024/03/19 09:16:27;;;;;;;2.45;1.17;;;15.80;80.30;;;;;;2313638;55;20961;-67
2024/03/19 09:18:53;;;;;;;2.60;1.40;;;15.80;80.00;;;;;;2312858;53;21185;-68
2024/03/19 09:21:19;;;;;;;3.45;1.50;;;15.90;80.00;;;;;;2311888;55;21036;-68
2024/03/19 09:23:47;;;;;;;2.78;1.20;;;16.00;80.20;;;;;;2312943;53;21370;-67
2024/03/19 09:26:15;;;;;;;3.20;1.35;;;16.20;80.40;;;;;;2314289;53;20928;-68
2024/03/19 09:28:41;;;;;;;2.95;1.42;;;16.20;80.30;;;;;;2313212;55;21001;-67
2024/03/19 09:31:08;;;;;;;3.75;1.37;;;16.30;80.10;;;;;;2312981;53;20973;-68
2024/03/19 09:33:36;;;;;;;3.35;1.30;;;16.40;79.90;;;;;;2311552;55;21039;-67
2024/03/19 09:36:06;;;;;;;3.08;1.60;;;16.40;79.80;;;;;;2313407;55;21012;-67
2024/03/19 09:38:33;;;;;;;3.53;1.75;;;16.50;79.60;;;;;;2311130;54;21032;-67
2024/03/19 09:41:03;;;;;;;3.58;2.03;;;16.60;79.20;;;;;;2313601;55;20997;-67
2024/03/19 09:43:34;;;;;;;3.10;1.55;;;16.60;78.90;;;;;;2313661;53;21257;-68
2024/03/19 09:46:00;;;;;;;2.92;1.50;;;16.70;79.50;;;;;;2313814;53;21747;-68
2024/03/19 09:48:28;;;;;;;4.05;2.25;;;16.70;79.80;;;;;;2313127;53;20957;-67
2024/03/19 09:50:54;;;;;;;3.47;2.00;;;16.80;79.80;;;;;;2312164;53;21233;-68
2024/03/19 09:53:24;;;;;;;3.67;2.12;;;16.90;79.70;;;;;;2314319;55;21213;-67
2024/03/19 09:55:50;;;;;;;3.37;1.95;;;16.90;79.90;;;;;;2313572;55;21008;-68
2024/03/19 09:58:19;;;;;;;7.25;2.37;;;17.00;80.00;;;;;;2313906;54;21053;-69
2024/03/19 10:00:46;;;;;;;3.75;2.10;;;17.10;80.10;;;;;;2313743;55;20945;-68
2024/03/19 10:03:13;;;;;;;3.60;2.15;;;17.20;80.00;;;;;;2313892;55;20989;-67
2024/03/19 10:05:39;;;;;;;4.43;2.25;;;17.30;80.10;;;;;;2313146;55;21061;-67
2024/03/19 10:08:07;;;;;;;3.10;1.70;;;17.40;80.10;;;;;;2313977;55;21358;-68
2024/03/19 10:10:33;;;;;;;4.55;1.98;;;17.50;80.10;;;;;;2313487;55;21450;-68
2024/03/19 10:13:00;;;;;;;3.90;2.10;;;17.50;80.20;;;;;;2312156;55;20973;-67
2024/03/19 10:15:28;;;;;;;4.50;2.37;;;17.60;80.20;;;;;;2312976;54;20949;-68
2024/03/19 10:17:57;;;;;;;4.40;2.20;;;17.70;80.10;;;;;;2312959;54;21254;-68
2024/03/19 10:20:25;;;;;;;4.47;2.50;;;17.80;80.00;;;;;;2291010;54;20989;-69
2024/03/19 10:22:53;;;;;;;4.30;2.50;;;17.90;80.10;;;;;;2313645;55;21206;-68
2024/03/19 10:25:20;;;;;;;3.10;1.90;;;17.90;80.50;;;;;;2313581;53;21182;-68
2024/03/19 10:27:47;;;;;;;3.40;1.83;;;18.00;80.70;;;;;;2313372;55;21072;-68
2024/03/19 10:30:23;;;;;;;3.75;2.10;;;18.10;80.80;;;;;;2313796;55;21293;-68
2024/03/19 10:32:52;;;;;;;3.05;1.75;;;18.20;79.90;;;;;;2313562;53;21723;-68
2024/03/19 10:35:22;;;;;;;4.12;1.62;;;18.30;80.50;;;;;;2314345;53;20977;-67
2024/03/19 10:37:52;;;;;;;3.20;1.52;;;18.30;79.50;;;;;;2313526;53;21037;-67
2024/03/19 10:40:19;;;;;;;3.15;1.90;;;18.40;79.50;;;;;;2313794;55;20992;-68
2024/03/19 10:42:47;;;;;;;3.87;1.73;;;18.50;79.10;;;;;;2313247;55;21016;-68
2024/03/19 10:45:21;;;;;;;2.95;1.60;;;18.50;79.00;;;;;;2313861;55;20981;-70
2024/03/19 10:47:51;;;;;;;3.17;1.60;;;18.50;78.20;;;;;;2313306;55;20961;-68
2024/03/19 10:50:19;;;;;;;2.80;1.60;;;18.60;78.60;;;;;;2313206;53;20949;-68
2024/03/19 10:53:00;;;;;;;3.47;1.77;;;18.60;79.00;;;;;;2313357;53;20956;-67
2024/03/19 10:55:26;;;;;;;3.00;1.60;;;18.60;78.40;;;;;;2313578;53;21101;-68
2024/03/19 10:57:52;;;;;;;2.97;1.65;;;18.70;79.70;;;;;;2312236;55;20977;-68
2024/03/19 11:00:25;;;;;;;4.95;2.05;;;18.70;79.90;;;;;;2313863;55;21401;-68
2024/03/19 11:02:56;;;;;;;3.40;2.03;;;18.80;79.20;;;;;;2313170;54;21061;-73
2024/03/19 11:05:22;;;;;;;3.60;2.00;;;18.90;79.70;;;;;;2313564;55;20949;-69
2024/03/19 11:07:49;;;;;;;2.95;1.58;;;18.90;79.80;;;;;;2313608;53;21523;-70
2024/03/19 11:10:25;;;;;;;3.83;2.00;;;19.00;80.00;;;;;;2314431;55;21005;-70
2024/03/19 11:12:56;;;;;;;3.80;2.10;;;19.10;79.40;;;;;;2310393;55;21459;-71
2024/03/19 11:15:22;;;;;;;3.85;1.65;;;19.10;79.20;;;;;;2313317;53;21787;-69
2024/03/19 11:17:49;;;;;;;4.37;1.77;;;19.10;79.30;;;;;;2313208;54;21308;-69
2024/03/19 11:20:17;;;;;;;3.58;1.62;;;19.20;79.20;;;;;;2313388;53;21016;-70
2024/03/19 11:22:47;;;;;;;3.55;1.65;;;19.20;79.20;;;;;;2312388;55;21044;-70
2024/03/19 11:25:14;;;;;;;4.75;1.90;;;19.30;78.60;;;;;;2313889;53;20928;-69
2024/03/19 11:27:47;;;;;;;2.78;1.58;;;19.30;78.60;;;;;;2313204;53;20985;-69
2024/03/19 11:30:13;;;;;;;2.60;1.33;;;19.30;77.90;;;;;;2317232;53;21108;-71
2024/03/19 11:32:40;;;;;;;3.08;1.60;;;19.30;78.40;;;;;;2309070;55;21005;-70
2024/03/19 11:35:40;;;;;;;3.45;1.70;;;19.30;78.60;;;;;;2316919;55;21092;-70
2024/03/19 11:38:13;;;;;;;3.47;1.73;;;19.40;76.80;;;;;;2296492;55;21020;-70
2024/03/19 11:40:39;;;;;;;2.67;1.50;;;19.40;78.00;;;;;;2312732;53;21020;-70
2024/03/19 11:43:06;;;;;;;3.30;1.25;;;19.40;78.40;;;;;;2312950;53;21057;-69
2024/03/19 11:45:35;;;;;;;2.90;1.10;;;19.50;78.60;;;;;;2313456;53;21414;-70
2024/03/19 11:48:03;;;;;;;2.87;1.25;;;19.60;78.80;;;;;;2316378;55;21049;-70
2024/03/19 11:50:34;;;;;;;3.25;1.33;;;19.60;78.80;;;;;;2300884;55;21056;-69
2024/03/19 11:53:01;;;;;;;4.18;1.20;;;19.60;78.30;;;;;;2281947;56;20953;-69
2024/03/19 11:55:28;;;;;;;4.65;1.50;;;19.60;78.30;;;;;;2552437;53;20970;-69
2024/03/19 11:57:55;;;;;;;2.45;1.27;;;19.60;78.20;;;;;;2311217;54;20988;-69
2024/03/19 12:00:21;;;;;;;2.65;1.33;;;19.70;78.50;;;;;;2309936;55;21406;-69
2024/03/19 12:02:50;;;;;;;2.42;1.30;;;19.70;78.40;;;;;;2312309;53;20989;-70
2024/03/19 12:05:16;;;;;;;3.05;1.27;;;19.80;78.30;;;;;;2313705;55;21537;-70
2024/03/19 12:07:44;;;;;;;3.42;1.40;;;19.80;78.30;;;;;;2313543;55;21040;-69
2024/03/19 12:10:15;;;;;;;2.47;1.25;;;19.80;77.80;;;;;;2313719;53;20957;-70
2024/03/19 12:12:42;;;;;;;2.05;1.05;;;19.80;77.80;;;;;;2312450;53;20972;-70
2024/03/19 12:15:09;;;;;;;2.53;1.15;;;19.90;78.00;;;;;;2313548;55;20985;-70
2024/03/19 12:17:36;;;;;;;2.65;1.25;;;19.90;78.10;;;;;;2313557;53;21808;-71
2024/03/19 12:20:04;;;;;;;2.60;1.45;;;19.90;78.10;;;;;;2313701;55;21017;-69
2024/03/19 12:22:34;;;;;;;2.67;1.30;;;20.00;78.20;;;;;;2312934;53;20965;-71
2024/03/19 12:25:00;;;;;;;5.25;1.50;;;20.00;77.70;;;;;;2313629;55;21081;-70
2024/03/19 12:27:26;;;;;;;2.90;1.20;;;20.00;77.90;;;;;;2313776;53;21071;-69
2024/03/19 12:29:53;;;;;;;2.75;1.30;;;20.10;77.70;;;;;;2313349;53;21017;-71
2024/03/19 12:32:36;;;;;;;2.87;1.05;;;20.10;77.40;;;;;;2313710;54;21005;-69
2024/03/19 12:35:13;;;;;;;3.08;1.20;;;20.10;77.20;;;;;;2311880;55;20989;-70
2024/03/19 12:37:40;;;;;;;1.98;0.98;;;20.10;77.20;;;;;;2312698;53;21037;-69
2024/03/19 12:40:10;;;;;;;2.45;1.12;;;20.10;77.00;;;;;;2314125;55;20973;-69
2024/03/19 12:42:36;;;;;;;2.12;1.00;;;20.10;77.00;;;;;;2314288;53;20937;-68
2024/03/19 12:45:03;;;;;;;2.03;1.00;;;20.10;77.00;;;;;;2315204;55;20973;-68
2024/03/19 12:47:29;;;;;;;1.33;0.70;;;20.10;76.70;;;;;;2310402;55;20949;-67